sensor_id;sensor_type;location;lat;lon;timestamp;pressure;altitude;pressure_sealevel;temperature;humidity
18022;BME280;9136;48.822;7.966;2023-06-14T00:01:31;99710.41;;;16.18;57.33
18022;BME280;9136;48.822;7.966;2023-06-14T00:04:20;99693.06;;;16.26;55.26
18022;BME280;9136;48.822;7.966;2023-06-14T00:07:11;99702.97;;;16.37;53.84
18022;BME280;9136;48.822;7.966;2023-06-14T00:09:59;99692.41;;;16.50;53.75
18022;BME280;9136;48.822;7.966;2023-06-14T00:12:47;99701.22;;;16.50;55.65
18022;BME280;9136;48.822;7.966;2023-06-14T00:15:37;99679.78;;;16.41;59.17
18022;BME280;9136;48.822;7.966;2023-06-14T00:18:25;99693.66;;;16.44;52.98
18022;BME280;9136;48.822;7.966;2023-06-14T00:21:17;99695.03;;;16.50;52.49
18022;BME280;9136;48.822;7.966;2023-06-14T00:24:05;99700.31;;;16.64;51.35
18022;BME280;9136;48.822;7.966;2023-06-14T00:26:53;99691.16;;;16.70;50.81
18022;BME280;9136;48.822;7.966;2023-06-14T00:29:41;99696.13;;;16.74;50.14
18022;BME280;9136;48.822;7.966;2023-06-14T00:32:31;99690.72;;;16.76;50.49
18022;BME280;9136;48.822;7.966;2023-06-14T00:35:19;99697.94;;;16.74;50.98
18022;BME280;9136;48.822;7.966;2023-06-14T00:38:07;99674.06;;;16.59;50.84
18022;BME280;9136;48.822;7.966;2023-06-14T00:40:55;99692.84;;;16.71;53.95
18022;BME280;9136;48.822;7.966;2023-06-14T00:43:42;99690.88;;;16.60;54.66
18022;BME280;9136;48.822;7.966;2023-06-14T00:46:30;99692.50;;;16.48;59.72
18022;BME280;9136;48.822;7.966;2023-06-14T00:49:20;99696.91;;;16.35;60.32
18022;BME280;9136;48.822;7.966;2023-06-14T00:52:08;99693.06;;;16.26;61.54
18022;BME280;9136;48.822;7.966;2023-06-14T00:54:58;99682.78;;;16.08;62.14
18022;BME280;9136;48.822;7.966;2023-06-14T00:57:46;99692.63;;;16.06;62.86
18022;BME280;9136;48.822;7.966;2023-06-14T01:00:34;99693.00;;;15.99;64.30
18022;BME280;9136;48.822;7.966;2023-06-14T01:03:21;99690.84;;;15.92;65.59
18022;BME280;9136;48.822;7.966;2023-06-14T01:06:17;99681.34;;;15.75;60.62
18022;BME280;9136;48.822;7.966;2023-06-14T01:09:18;99693.22;;;15.82;66.30
18022;BME280;9136;48.822;7.966;2023-06-14T01:12:15;99685.28;;;15.82;60.20
18022;BME280;9136;48.822;7.966;2023-06-14T01:15:07;99675.28;;;15.73;60.13
18022;BME280;9136;48.822;7.966;2023-06-14T01:17:55;99688.69;;;15.70;60.82
18022;BME280;9136;48.822;7.966;2023-06-14T01:20:49;99703.16;;;15.79;58.42
18022;BME280;9136;48.822;7.966;2023-06-14T01:23:38;99698.91;;;15.76;57.74
18022;BME280;9136;48.822;7.966;2023-06-14T01:26:26;99686.63;;;15.75;57.40
18022;BME280;9136;48.822;7.966;2023-06-14T01:29:15;99688.44;;;15.74;58.12
18022;BME280;9136;48.822;7.966;2023-06-14T01:32:05;99693.81;;;15.73;59.88
18022;BME280;9136;48.822;7.966;2023-06-14T01:34:54;99695.16;;;15.66;58.29
18022;BME280;9136;48.822;7.966;2023-06-14T01:37:43;99708.06;;;15.70;62.30
18022;BME280;9136;48.822;7.966;2023-06-14T01:40:34;99690.53;;;15.54;59.55
18022;BME280;9136;48.822;7.966;2023-06-14T01:43:22;99707.00;;;15.59;60.33
18022;BME280;9136;48.822;7.966;2023-06-14T01:46:11;99698.78;;;15.49;60.80
18022;BME280;9136;48.822;7.966;2023-06-14T01:49:00;99715.31;;;15.53;61.96
18022;BME280;9136;48.822;7.966;2023-06-14T01:51:48;99705.22;;;15.45;61.33
18022;BME280;9136;48.822;7.966;2023-06-14T01:54:36;99705.28;;;15.43;61.88
18022;BME280;9136;48.822;7.966;2023-06-14T01:57:29;99705.28;;;15.43;62.81
18022;BME280;9136;48.822;7.966;2023-06-14T02:00:17;99703.78;;;15.39;62.27
18022;BME280;9136;48.822;7.966;2023-06-14T02:03:05;99698.00;;;15.33;62.85
18022;BME280;9136;48.822;7.966;2023-06-14T02:05:53;99697.63;;;15.25;63.87
18022;BME280;9136;48.822;7.966;2023-06-14T02:08:41;99697.44;;;15.28;63.55
18022;BME280;9136;48.822;7.966;2023-06-14T02:11:30;99699.91;;;15.31;64.71
18022;BME280;9136;48.822;7.966;2023-06-14T02:14:20;99697.63;;;15.25;65.65
18022;BME280;9136;48.822;7.966;2023-06-14T02:17:08;99692.97;;;15.14;64.74
18022;BME280;9136;48.822;7.966;2023-06-14T02:19:56;99713.78;;;15.20;64.70
18022;BME280;9136;48.822;7.966;2023-06-14T02:22:45;99710.84;;;15.25;72.00
18022;BME280;9136;48.822;7.966;2023-06-14T02:25:32;99707.75;;;15.18;66.64
18022;BME280;9136;48.822;7.966;2023-06-14T02:28:21;99711.97;;;15.21;72.53
18022;BME280;9136;48.822;7.966;2023-06-14T02:31:10;99716.31;;;15.22;69.46
18022;BME280;9136;48.822;7.966;2023-06-14T02:33:57;99693.44;;;15.06;67.16
18022;BME280;9136;48.822;7.966;2023-06-14T02:36:45;99707.34;;;15.10;67.29
18022;BME280;9136;48.822;7.966;2023-06-14T02:39:34;99706.38;;;15.11;66.92
18022;BME280;9136;48.822;7.966;2023-06-14T02:42:22;99711.59;;;15.12;68.41
18022;BME280;9136;48.822;7.966;2023-06-14T02:45:10;99714.22;;;15.12;71.77
18022;BME280;9136;48.822;7.966;2023-06-14T02:48:00;99709.88;;;15.11;76.83
18022;BME280;9136;48.822;7.966;2023-06-14T02:50:48;99705.53;;;14.96;78.11
18022;BME280;9136;48.822;7.966;2023-06-14T02:53:37;99713.34;;;14.98;76.99
18022;BME280;9136;48.822;7.966;2023-06-14T02:56:25;99722.31;;;14.95;76.64
18022;BME280;9136;48.822;7.966;2023-06-14T02:59:14;99723.53;;;14.89;77.60
18022;BME280;9136;48.822;7.966;2023-06-14T03:02:01;99714.75;;;14.89;78.96
18022;BME280;9136;48.822;7.966;2023-06-14T03:04:51;99722.69;;;14.89;77.67
18022;BME280;9136;48.822;7.966;2023-06-14T03:07:39;99729.38;;;14.95;83.29
18022;BME280;9136;48.822;7.966;2023-06-14T03:10:31;99724.47;;;14.88;78.72
18022;BME280;9136;48.822;7.966;2023-06-14T03:13:19;99721.06;;;14.86;77.91
18022;BME280;9136;48.822;7.966;2023-06-14T03:16:07;99720.78;;;14.91;72.72
18022;BME280;9136;48.822;7.966;2023-06-14T03:18:55;99726.41;;;15.01;70.26
18022;BME280;9136;48.822;7.966;2023-06-14T03:21:44;99730.00;;;15.00;71.11
18022;BME280;9136;48.822;7.966;2023-06-14T03:24:33;99723.94;;;14.98;70.88
18022;BME280;9136;48.822;7.966;2023-06-14T03:27:22;99733.97;;;15.07;71.00
18022;BME280;9136;48.822;7.966;2023-06-14T03:30:11;99730.28;;;15.09;69.99
18022;BME280;9136;48.822;7.966;2023-06-14T03:32:59;99744.03;;;15.16;90.27
18022;BME280;9136;48.822;7.966;2023-06-14T03:35:47;99730.19;;;15.11;90.28
18022;BME280;9136;48.822;7.966;2023-06-14T03:38:37;99739.34;;;15.05;92.88
18022;BME280;9136;48.822;7.966;2023-06-14T03:41:25;99745.09;;;14.98;93.13
18022;BME280;9136;48.822;7.966;2023-06-14T03:44:15;99747.91;;;14.95;93.32
18022;BME280;9136;48.822;7.966;2023-06-14T03:47:03;99740.78;;;14.81;94.30
18022;BME280;9136;48.822;7.966;2023-06-14T03:49:51;99740.88;;;14.79;100.00
18022;BME280;9136;48.822;7.966;2023-06-14T03:52:39;99758.16;;;14.85;100.00
18022;BME280;9136;48.822;7.966;2023-06-14T03:55:30;99753.91;;;14.82;100.00
18022;BME280;9136;48.822;7.966;2023-06-14T03:58:19;99753.25;;;14.79;99.16
18022;BME280;9136;48.822;7.966;2023-06-14T04:01:08;99749.25;;;14.72;97.04
18022;BME280;9136;48.822;7.966;2023-06-14T04:03:58;99764.41;;;14.84;100.00
18022;BME280;9136;48.822;7.966;2023-06-14T04:06:46;99767.00;;;14.70;91.49
18022;BME280;9136;48.822;7.966;2023-06-14T04:09:34;99773.63;;;14.77;100.00
18022;BME280;9136;48.822;7.966;2023-06-14T04:12:24;99780.16;;;14.85;100.00
18022;BME280;9136;48.822;7.966;2023-06-14T04:15:12;99767.47;;;14.76;85.83
18022;BME280;9136;48.822;7.966;2023-06-14T04:18:00;99771.13;;;14.89;91.75
18022;BME280;9136;48.822;7.966;2023-06-14T04:20:48;99783.13;;;14.95;85.92
18022;BME280;9136;48.822;7.966;2023-06-14T04:23:36;99792.19;;;15.07;99.72
18022;BME280;9136;48.822;7.966;2023-06-14T04:26:24;99778.25;;;15.03;100.00
18022;BME280;9136;48.822;7.966;2023-06-14T04:29:17;99799.94;;;15.10;92.81
18022;BME280;9136;48.822;7.966;2023-06-14T04:32:06;99783.72;;;15.16;95.12
18022;BME280;9136;48.822;7.966;2023-06-14T04:34:56;99793.16;;;15.20;86.76
18022;BME280;9136;48.822;7.966;2023-06-14T04:37:45;99786.38;;;15.30;95.49
18022;BME280;9136;48.822;7.966;2023-06-14T04:40:33;99797.28;;;15.40;90.87
18022;BME280;9136;48.822;7.966;2023-06-14T04:43:22;99792.38;;;15.48;95.72
18022;BME280;9136;48.822;7.966;2023-06-14T04:46:13;99810.09;;;15.62;84.84
18022;BME280;9136;48.822;7.966;2023-06-14T04:49:02;99786.28;;;15.62;84.49
18022;BME280;9136;48.822;7.966;2023-06-14T04:51:50;99812.41;;;15.82;91.16
18022;BME280;9136;48.822;7.966;2023-06-14T04:54:43;99822.94;;;15.84;78.09
18022;BME280;9136;48.822;7.966;2023-06-14T04:57:31;99805.34;;;15.83;82.77
18022;BME280;9136;48.822;7.966;2023-06-14T05:00:19;99797.00;;;15.89;91.24
18022;BME280;9136;48.822;7.966;2023-06-14T05:03:09;99832.00;;;16.08;85.76
18022;BME280;9136;48.822;7.966;2023-06-14T05:05:59;99818.50;;;16.13;80.44
18022;BME280;9136;48.822;7.966;2023-06-14T05:08:47;99823.78;;;16.27;80.59
18022;BME280;9136;48.822;7.966;2023-06-14T05:11:34;99801.19;;;16.21;76.21
18022;BME280;9136;48.822;7.966;2023-06-14T05:14:22;99821.03;;;16.43;75.74
18022;BME280;9136;48.822;7.966;2023-06-14T05:17:10;99812.22;;;16.42;74.59
18022;BME280;9136;48.822;7.966;2023-06-14T05:19:59;99824.09;;;16.64;80.34
18022;BME280;9136;48.822;7.966;2023-06-14T05:22:47;99833.31;;;16.72;74.24
18022;BME280;9136;48.822;7.966;2023-06-14T05:25:36;99832.91;;;16.78;71.68
18022;BME280;9136;48.822;7.966;2023-06-14T05:28:24;99823.44;;;16.74;70.75
18022;BME280;9136;48.822;7.966;2023-06-14T05:31:12;99840.19;;;16.89;73.58
18022;BME280;9136;48.822;7.966;2023-06-14T05:33:59;99838.72;;;16.98;71.95
18022;BME280;9136;48.822;7.966;2023-06-14T05:36:49;99842.88;;;17.02;69.55
18022;BME280;9136;48.822;7.966;2023-06-14T05:39:37;99834.59;;;17.06;71.42
18022;BME280;9136;48.822;7.966;2023-06-14T05:42:25;99839.22;;;17.17;68.94
18022;BME280;9136;48.822;7.966;2023-06-14T05:45:13;99849.22;;;17.26;67.10
18022;BME280;9136;48.822;7.966;2023-06-14T05:48:02;99845.31;;;17.32;67.28
18022;BME280;9136;48.822;7.966;2023-06-14T05:50:49;99851.25;;;17.35;64.10
18022;BME280;9136;48.822;7.966;2023-06-14T05:53:39;99845.22;;;17.33;64.43
18022;BME280;9136;48.822;7.966;2023-06-14T05:56:27;99856.91;;;17.43;62.45
18022;BME280;9136;48.822;7.966;2023-06-14T05:59:14;99855.66;;;17.49;69.71
18022;BME280;9136;48.822;7.966;2023-06-14T06:02:03;99857.25;;;17.52;64.66
18022;BME280;9136;48.822;7.966;2023-06-14T06:04:51;99856.19;;;17.54;65.64
18022;BME280;9136;48.822;7.966;2023-06-14T06:07:39;99860.72;;;17.66;61.23
18022;BME280;9136;48.822;7.966;2023-06-14T06:10:28;99865.72;;;17.71;63.56
18022;BME280;9136;48.822;7.966;2023-06-14T06:13:16;99863.25;;;17.68;62.35
18022;BME280;9136;48.822;7.966;2023-06-14T06:16:04;99874.53;;;17.71;62.37
18022;BME280;9136;48.822;7.966;2023-06-14T06:18:52;99854.97;;;17.72;61.20
18022;BME280;9136;48.822;7.966;2023-06-14T06:21:41;99864.34;;;17.78;63.42
18022;BME280;9136;48.822;7.966;2023-06-14T06:24:29;99862.34;;;17.82;62.25
18022;BME280;9136;48.822;7.966;2023-06-14T06:27:19;99863.19;;;17.82;60.48
18022;BME280;9136;48.822;7.966;2023-06-14T06:30:07;99867.47;;;17.97;63.84
18022;BME280;9136;48.822;7.966;2023-06-14T06:32:55;99885.84;;;18.00;61.06
18022;BME280;9136;48.822;7.966;2023-06-14T06:35:43;99884.59;;;18.06;60.38
18022;BME280;9136;48.822;7.966;2023-06-14T06:38:31;99875.44;;;18.10;64.72
18022;BME280;9136;48.822;7.966;2023-06-14T06:41:22;99881.59;;;18.23;58.87
18022;BME280;9136;48.822;7.966;2023-06-14T06:44:12;99895.41;;;18.28;59.16
18022;BME280;9136;48.822;7.966;2023-06-14T06:46:59;99894.16;;;18.34;58.60
18022;BME280;9136;48.822;7.966;2023-06-14T06:49:48;99892.13;;;18.38;57.90
18022;BME280;9136;48.822;7.966;2023-06-14T06:52:36;99889.69;;;18.35;57.68
18022;BME280;9136;48.822;7.966;2023-06-14T06:55:24;99890.09;;;18.41;65.04
18022;BME280;9136;48.822;7.966;2023-06-14T06:58:13;99896.66;;;18.61;57.63
18022;BME280;9136;48.822;7.966;2023-06-14T07:01:03;99905.09;;;18.68;61.79
18022;BME280;9136;48.822;7.966;2023-06-14T07:03:51;99905.41;;;18.76;58.63
18022;BME280;9136;48.822;7.966;2023-06-14T07:06:38;99914.06;;;18.91;59.07
18022;BME280;9136;48.822;7.966;2023-06-14T07:09:26;99898.69;;;18.83;56.36
18022;BME280;9136;48.822;7.966;2023-06-14T07:12:14;99895.75;;;18.99;56.82
18022;BME280;9136;48.822;7.966;2023-06-14T07:15:02;99902.06;;;19.22;60.62
18022;BME280;9136;48.822;7.966;2023-06-14T07:17:52;99916.69;;;19.40;59.01
18022;BME280;9136;48.822;7.966;2023-06-14T07:20:39;99906.97;;;19.39;57.99
18022;BME280;9136;48.822;7.966;2023-06-14T07:23:29;99911.81;;;19.58;58.21
18022;BME280;9136;48.822;7.966;2023-06-14T07:26:17;99892.34;;;19.68;56.28
18022;BME280;9136;48.822;7.966;2023-06-14T07:29:04;99927.63;;;19.72;51.94
18022;BME280;9136;48.822;7.966;2023-06-14T07:31:52;99929.94;;;19.77;52.65
18022;BME280;9136;48.822;7.966;2023-06-14T07:34:42;99919.22;;;19.89;58.07
18022;BME280;9136;48.822;7.966;2023-06-14T07:37:30;99931.59;;;20.01;52.87
18022;BME280;9136;48.822;7.966;2023-06-14T07:40:18;99929.22;;;20.10;51.99
18022;BME280;9136;48.822;7.966;2023-06-14T07:43:06;99920.97;;;20.13;51.90
18022;BME280;9136;48.822;7.966;2023-06-14T07:45:54;99916.84;;;20.09;51.56
18022;BME280;9136;48.822;7.966;2023-06-14T07:48:43;99912.38;;;20.20;53.08
18022;BME280;9136;48.822;7.966;2023-06-14T07:51:32;99925.84;;;20.41;52.34
18022;BME280;9136;48.822;7.966;2023-06-14T07:54:20;99935.13;;;20.48;53.42
18022;BME280;9136;48.822;7.966;2023-06-14T07:57:11;99940.34;;;20.61;50.80
18022;BME280;9136;48.822;7.966;2023-06-14T07:59:59;99932.81;;;20.66;50.19
18022;BME280;9136;48.822;7.966;2023-06-14T08:02:47;99933.03;;;20.74;52.33
18022;BME280;9136;48.822;7.966;2023-06-14T08:05:35;99932.69;;;20.90;51.68
18022;BME280;9136;48.822;7.966;2023-06-14T08:08:24;99935.34;;;20.90;50.47
18022;BME280;9136;48.822;7.966;2023-06-14T08:11:12;99940.19;;;21.07;51.44
18022;BME280;9136;48.822;7.966;2023-06-14T08:14:00;99927.56;;;21.09;51.83
18022;BME280;9136;48.822;7.966;2023-06-14T08:16:49;99939.81;;;21.34;51.00
18022;BME280;9136;48.822;7.966;2023-06-14T08:19:37;99949.47;;;21.47;51.98
18022;BME280;9136;48.822;7.966;2023-06-14T08:22:25;99942.72;;;21.31;48.22
18022;BME280;9136;48.822;7.966;2023-06-14T08:25:16;99948.38;;;21.49;51.32
18022;BME280;9136;48.822;7.966;2023-06-14T08:28:04;99943.50;;;21.54;47.82
18022;BME280;9136;48.822;7.966;2023-06-14T08:30:52;99936.13;;;21.47;50.71
18022;BME280;9136;48.822;7.966;2023-06-14T08:33:40;99945.06;;;21.57;47.38
18022;BME280;9136;48.822;7.966;2023-06-14T08:36:29;99940.84;;;21.54;47.40
18022;BME280;9136;48.822;7.966;2023-06-14T08:39:17;99946.53;;;21.50;47.62
18022;BME280;9136;48.822;7.966;2023-06-14T08:42:08;99933.81;;;21.42;47.41
18022;BME280;9136;48.822;7.966;2023-06-14T08:44:56;99944.75;;;21.71;50.03
18022;BME280;9136;48.822;7.966;2023-06-14T08:47:44;99941.44;;;21.79;48.25
18022;BME280;9136;48.822;7.966;2023-06-14T08:50:40;99942.47;;;21.66;46.39
18022;BME280;9136;48.822;7.966;2023-06-14T08:53:30;99950.19;;;21.81;47.98
18022;BME280;9136;48.822;7.966;2023-06-14T08:56:19;99949.19;;;21.93;50.09
18022;BME280;9136;48.822;7.966;2023-06-14T08:59:10;99938.41;;;22.04;47.81
18022;BME280;9136;48.822;7.966;2023-06-14T09:01:59;99952.59;;;22.16;45.51
18022;BME280;9136;48.822;7.966;2023-06-14T09:04:47;99959.78;;;22.36;47.54
18022;BME280;9136;48.822;7.966;2023-06-14T09:07:36;99948.53;;;22.42;44.69
18022;BME280;9136;48.822;7.966;2023-06-14T09:10:25;99953.53;;;22.56;45.08
18022;BME280;9136;48.822;7.966;2023-06-14T09:13:13;99957.53;;;22.93;43.12
18022;BME280;9136;48.822;7.966;2023-06-14T09:16:03;99952.66;;;23.07;44.64
18022;BME280;9136;48.822;7.966;2023-06-14T09:18:51;99963.84;;;23.22;42.83
18022;BME280;9136;48.822;7.966;2023-06-14T09:21:40;99966.00;;;23.38;42.41
18022;BME280;9136;48.822;7.966;2023-06-14T09:24:27;99942.56;;;23.40;43.48
18022;BME280;9136;48.822;7.966;2023-06-14T09:27:15;99967.31;;;23.73;43.74
18022;BME280;9136;48.822;7.966;2023-06-14T09:30:04;99969.75;;;23.76;42.30
18022;BME280;9136;48.822;7.966;2023-06-14T09:32:54;99973.28;;;23.76;43.07
18022;BME280;9136;48.822;7.966;2023-06-14T09:35:45;99962.75;;;23.54;44.26
18022;BME280;9136;48.822;7.966;2023-06-14T09:38:34;99958.72;;;23.59;42.59
18022;BME280;9136;48.822;7.966;2023-06-14T09:41:30;99967.91;;;23.76;42.03
18022;BME280;9136;48.822;7.966;2023-06-14T09:44:19;99971.69;;;23.83;40.48
18022;BME280;9136;48.822;7.966;2023-06-14T09:47:08;99978.06;;;23.92;41.77
18022;BME280;9136;48.822;7.966;2023-06-14T09:49:58;99973.28;;;23.76;38.79
18022;BME280;9136;48.822;7.966;2023-06-14T09:52:47;99974.28;;;23.85;41.30
18022;BME280;9136;48.822;7.966;2023-06-14T09:55:41;99987.94;;;24.11;40.71
18022;BME280;9136;48.822;7.966;2023-06-14T09:58:30;99989.22;;;24.36;42.63
18022;BME280;9136;48.822;7.966;2023-06-14T10:01:20;99979.13;;;24.57;41.49
18022;BME280;9136;48.822;7.966;2023-06-14T10:04:09;99977.22;;;24.77;40.15
18022;BME280;9136;48.822;7.966;2023-06-14T10:07:00;99971.44;;;24.81;40.92
18022;BME280;9136;48.822;7.966;2023-06-14T10:09:49;99979.22;;;24.75;38.41
18022;BME280;9136;48.822;7.966;2023-06-14T10:12:38;99970.84;;;24.78;38.32
18022;BME280;9136;48.822;7.966;2023-06-14T10:15:35;99962.03;;;24.95;40.11
18022;BME280;9136;48.822;7.966;2023-06-14T10:18:32;99952.91;;;25.16;38.49
18022;BME280;9136;48.822;7.966;2023-06-14T10:21:25;99964.72;;;25.50;40.18
18022;BME280;9136;48.822;7.966;2023-06-14T10:24:18;99973.06;;;25.47;38.77
18022;BME280;9136;48.822;7.966;2023-06-14T10:27:07;99958.84;;;25.37;37.74
18022;BME280;9136;48.822;7.966;2023-06-14T10:30:05;99976.28;;;25.33;35.56
18022;BME280;9136;48.822;7.966;2023-06-14T10:33:04;99961.97;;;25.15;35.23
18022;BME280;9136;48.822;7.966;2023-06-14T10:36:07;99965.06;;;25.37;36.20
18022;BME280;9136;48.822;7.966;2023-06-14T10:39:00;99971.16;;;25.57;37.18
18022;BME280;9136;48.822;7.966;2023-06-14T10:41:54;99963.97;;;25.93;37.45
18022;BME280;9136;48.822;7.966;2023-06-14T10:44:44;99975.97;;;26.17;36.47
18022;BME280;9136;48.822;7.966;2023-06-14T10:47:33;99979.59;;;26.34;35.68
18022;BME280;9136;48.822;7.966;2023-06-14T10:50:27;99972.34;;;26.26;36.34
18022;BME280;9136;48.822;7.966;2023-06-14T10:53:22;99975.28;;;26.59;34.52
18022;BME280;9136;48.822;7.966;2023-06-14T10:56:23;99976.78;;;26.61;33.73
18022;BME280;9136;48.822;7.966;2023-06-14T10:59:15;99965.56;;;26.66;35.36
18022;BME280;9136;48.822;7.966;2023-06-14T11:02:24;99963.97;;;27.15;34.33
18022;BME280;9136;48.822;7.966;2023-06-14T11:05:24;99961.44;;;28.37;31.03
18022;BME280;9136;48.822;7.966;2023-06-14T11:08:25;99948.81;;;30.09;28.33
18022;BME280;9136;48.822;7.966;2023-06-14T11:11:14;99960.03;;;31.90;27.89
18022;BME280;9136;48.822;7.966;2023-06-14T11:14:03;99970.91;;;32.95;25.19
18022;BME280;9136;48.822;7.966;2023-06-14T11:16:53;99968.38;;;34.42;23.69
18022;BME280;9136;48.822;7.966;2023-06-14T11:19:41;99976.91;;;34.86;22.60
18022;BME280;9136;48.822;7.966;2023-06-14T11:22:29;99959.66;;;35.88;20.17
18022;BME280;9136;48.822;7.966;2023-06-14T11:25:17;99967.22;;;36.67;20.79
18022;BME280;9136;48.822;7.966;2023-06-14T11:28:04;99966.94;;;37.31;20.54
18022;BME280;9136;48.822;7.966;2023-06-14T11:30:59;99955.88;;;36.82;20.08
18022;BME280;9136;48.822;7.966;2023-06-14T11:33:53;99960.47;;;36.45;20.73
18022;BME280;9136;48.822;7.966;2023-06-14T11:36:41;99949.09;;;36.66;20.57
18022;BME280;9136;48.822;7.966;2023-06-14T11:39:29;99947.78;;;36.26;20.78
18022;BME280;9136;48.822;7.966;2023-06-14T11:42:17;99942.44;;;36.37;20.59
18022;BME280;9136;48.822;7.966;2023-06-14T11:45:08;99940.59;;;36.31;20.96
18022;BME280;9136;48.822;7.966;2023-06-14T11:47:56;99957.81;;;36.57;20.59
18022;BME280;9136;48.822;7.966;2023-06-14T11:50:49;99939.28;;;37.14;20.60
18022;BME280;9136;48.822;7.966;2023-06-14T11:53:37;99946.53;;;37.27;20.75
18022;BME280;9136;48.822;7.966;2023-06-14T11:56:25;99931.25;;;37.19;21.15
18022;BME280;9136;48.822;7.966;2023-06-14T11:59:13;99938.63;;;37.37;20.51
18022;BME280;9136;48.822;7.966;2023-06-14T12:02:03;99931.53;;;36.56;19.54
18022;BME280;9136;48.822;7.966;2023-06-14T12:04:51;99934.06;;;35.38;20.20
18022;BME280;9136;48.822;7.966;2023-06-14T12:07:40;99944.25;;;36.68;20.07
18022;BME280;9136;48.822;7.966;2023-06-14T12:10:28;99924.09;;;36.20;19.80
18022;BME280;9136;48.822;7.966;2023-06-14T12:13:17;99923.88;;;35.58;22.13
18022;BME280;9136;48.822;7.966;2023-06-14T12:16:07;99916.03;;;36.25;19.88
18022;BME280;9136;48.822;7.966;2023-06-14T12:18:54;99918.59;;;34.60;20.48
18022;BME280;9136;48.822;7.966;2023-06-14T12:21:46;99923.19;;;35.31;21.64
18022;BME280;9136;48.822;7.966;2023-06-14T12:24:36;99932.66;;;36.66;20.10
18022;BME280;9136;48.822;7.966;2023-06-14T12:27:25;99920.22;;;38.09;20.10
18022;BME280;9136;48.822;7.966;2023-06-14T12:30:15;99928.72;;;37.36;18.73
18022;BME280;9136;48.822;7.966;2023-06-14T12:33:03;99921.88;;;38.10;18.81
18022;BME280;9136;48.822;7.966;2023-06-14T12:35:55;99926.66;;;36.76;19.91
18022;BME280;9136;48.822;7.966;2023-06-14T12:38:43;99922.25;;;36.75;19.58
18022;BME280;9136;48.822;7.966;2023-06-14T12:41:34;99933.44;;;36.55;19.83
18022;BME280;9136;48.822;7.966;2023-06-14T12:44:23;99928.06;;;35.61;20.00
18022;BME280;9136;48.822;7.966;2023-06-14T12:47:11;99919.31;;;36.95;20.76
18022;BME280;9136;48.822;7.966;2023-06-14T12:49:59;99918.78;;;36.86;19.38
18022;BME280;9136;48.822;7.966;2023-06-14T12:52:47;99929.28;;;37.08;20.24
18022;BME280;9136;48.822;7.966;2023-06-14T12:55:34;99931.31;;;37.72;19.17
18022;BME280;9136;48.822;7.966;2023-06-14T12:58:24;99921.28;;;37.85;18.91
18022;BME280;9136;48.822;7.966;2023-06-14T13:01:11;99920.34;;;38.14;17.78
18022;BME280;9136;48.822;7.966;2023-06-14T13:03:59;99937.31;;;37.39;18.44
18022;BME280;9136;48.822;7.966;2023-06-14T13:06:47;99944.63;;;36.72;18.97
18022;BME280;9136;48.822;7.966;2023-06-14T13:09:35;99942.09;;;36.27;19.64
18022;BME280;9136;48.822;7.966;2023-06-14T13:12:22;99944.78;;;36.95;19.19
18022;BME280;9136;48.822;7.966;2023-06-14T13:15:12;99941.50;;;36.50;19.65
18022;BME280;9136;48.822;7.966;2023-06-14T13:18:00;99928.25;;;36.47;18.04
18022;BME280;9136;48.822;7.966;2023-06-14T13:20:49;99929.00;;;36.36;19.90
18022;BME280;9136;48.822;7.966;2023-06-14T13:23:37;99937.19;;;36.79;19.62
18022;BME280;9136;48.822;7.966;2023-06-14T13:26:25;99931.38;;;37.24;18.54
18022;BME280;9136;48.822;7.966;2023-06-14T13:29:15;99944.41;;;37.89;18.32
18022;BME280;9136;48.822;7.966;2023-06-14T13:32:06;99949.03;;;37.46;18.03
18022;BME280;9136;48.822;7.966;2023-06-14T13:34:54;99939.97;;;36.73;18.68
18022;BME280;9136;48.822;7.966;2023-06-14T13:37:42;99933.03;;;36.27;20.38
18022;BME280;9136;48.822;7.966;2023-06-14T13:40:29;99945.25;;;37.11;18.60
18022;BME280;9136;48.822;7.966;2023-06-14T13:43:17;99952.28;;;36.88;17.97
18022;BME280;9136;48.822;7.966;2023-06-14T13:46:05;99934.06;;;36.32;18.88
18022;BME280;9136;48.822;7.966;2023-06-14T13:48:55;99924.59;;;36.10;19.24
18022;BME280;9136;48.822;7.966;2023-06-14T13:51:43;99923.31;;;36.56;20.25
18022;BME280;9136;48.822;7.966;2023-06-14T13:54:31;99933.56;;;37.64;17.94
18022;BME280;9136;48.822;7.966;2023-06-14T13:57:19;99938.16;;;36.66;18.20
18022;BME280;9136;48.822;7.966;2023-06-14T14:00:08;99924.72;;;35.59;17.96
18022;BME280;9136;48.822;7.966;2023-06-14T14:02:56;99932.22;;;35.70;19.90
18022;BME280;9136;48.822;7.966;2023-06-14T14:05:47;99925.03;;;34.99;20.33
18022;BME280;9136;48.822;7.966;2023-06-14T14:08:35;99921.47;;;35.37;20.54
18022;BME280;9136;48.822;7.966;2023-06-14T14:11:23;99930.94;;;36.72;20.84
18022;BME280;9136;48.822;7.966;2023-06-14T14:14:11;99918.53;;;38.08;18.36
18022;BME280;9136;48.822;7.966;2023-06-14T14:16:59;99920.91;;;37.51;18.44
18022;BME280;9136;48.822;7.966;2023-06-14T14:19:46;99930.09;;;36.28;18.18
18022;BME280;9136;48.822;7.966;2023-06-14T14:22:36;99911.59;;;35.74;18.94
18022;BME280;9136;48.822;7.966;2023-06-14T14:25:23;99930.50;;;36.32;18.02
18022;BME280;9136;48.822;7.966;2023-06-14T14:28:11;99930.22;;;36.40;19.98
18022;BME280;9136;48.822;7.966;2023-06-14T14:31:02;99922.78;;;36.22;18.58
18022;BME280;9136;48.822;7.966;2023-06-14T14:33:50;99921.28;;;35.32;19.38
18022;BME280;9136;48.822;7.966;2023-06-14T14:36:37;99935.03;;;36.20;19.55
18022;BME280;9136;48.822;7.966;2023-06-14T14:39:30;99928.63;;;35.44;19.40
18022;BME280;9136;48.822;7.966;2023-06-14T14:42:18;99911.25;;;35.95;19.88
18022;BME280;9136;48.822;7.966;2023-06-14T14:45:07;99926.81;;;36.20;19.91
18022;BME280;9136;48.822;7.966;2023-06-14T14:47:55;99917.94;;;36.49;19.18
18022;BME280;9136;48.822;7.966;2023-06-14T14:50:43;99920.22;;;36.71;19.63
18022;BME280;9136;48.822;7.966;2023-06-14T14:53:31;99915.72;;;36.39;19.87
18022;BME280;9136;48.822;7.966;2023-06-14T14:56:22;99915.03;;;35.94;19.48
18022;BME280;9136;48.822;7.966;2023-06-14T14:59:10;99919.31;;;35.52;18.77
18022;BME280;9136;48.822;7.966;2023-06-14T15:01:57;99913.97;;;36.20;20.25
18022;BME280;9136;48.822;7.966;2023-06-14T15:04:46;99900.97;;;36.16;19.24
18022;BME280;9136;48.822;7.966;2023-06-14T15:07:34;99916.31;;;36.17;19.77